sensor_id;sensor_type;location;lat;lon;timestamp;P1;durP1;ratioP1;P2;durP2;ratioP2
75419;SDS011;63998;52.488;13.428;2023-04-15T00:01:35;21.27;;;13.15;;
75419;SDS011;63998;52.488;13.428;2023-04-15T00:04:01;24.65;;;13.15;;
75419;SDS011;63998;52.488;13.428;2023-04-15T00:06:27;23.40;;;13.67;;
75419;SDS011;63998;52.488;13.428;2023-04-15T00:08:52;24.90;;;13.60;;
75419;SDS011;63998;52.488;13.428;2023-04-15T00:11:18;24.40;;;14.00;;
75419;SDS011;63998;52.488;13.428;2023-04-15T00:13:44;24.42;;;13.95;;
75419;SDS011;63998;52.488;13.428;2023-04-15T00:16:10;26.05;;;14.90;;
75419;SDS011;63998;52.488;13.428;2023-04-15T00:18:35;25.58;;;14.30;;
75419;SDS011;63998;52.488;13.428;2023-04-15T00:21:04;25.20;;;13.85;;
75419;SDS011;63998;52.488;13.428;2023-04-15T00:23:29;27.73;;;14.88;;
75419;SDS011;63998;52.488;13.428;2023-04-15T00:25:55;25.42;;;13.93;;
75419;SDS011;63998;52.488;13.428;2023-04-15T00:28:21;26.05;;;14.50;;
75419;SDS011;63998;52.488;13.428;2023-04-15T00:30:46;23.52;;;13.75;;
75419;SDS011;63998;52.488;13.428;2023-04-15T00:33:15;26.58;;;14.13;;
75419;SDS011;63998;52.488;13.428;2023-04-15T00:35:40;28.60;;;15.57;;
75419;SDS011;63998;52.488;13.428;2023-04-15T00:38:06;24.52;;;14.88;;
75419;SDS011;63998;52.488;13.428;2023-04-15T00:40:34;27.58;;;14.40;;
75419;SDS011;63998;52.488;13.428;2023-04-15T00:43:02;28.50;;;14.60;;
75419;SDS011;63998;52.488;13.428;2023-04-15T00:45:28;27.05;;;15.57;;
75419;SDS011;63998;52.488;13.428;2023-04-15T00:47:54;26.77;;;14.88;;
75419;SDS011;63998;52.488;13.428;2023-04-15T00:50:22;28.27;;;14.18;;
75419;SDS011;63998;52.488;13.428;2023-04-15T00:52:50;27.77;;;14.73;;
75419;SDS011;63998;52.488;13.428;2023-04-15T00:55:15;28.33;;;15.25;;
75419;SDS011;63998;52.488;13.428;2023-04-15T00:57:41;24.83;;;14.30;;
75419;SDS011;63998;52.488;13.428;2023-04-15T01:00:10;27.33;;;15.95;;
75419;SDS011;63998;52.488;13.428;2023-04-15T01:02:36;29.95;;;15.63;;
75419;SDS011;63998;52.488;13.428;2023-04-15T01:05:02;28.08;;;15.02;;
75419;SDS011;63998;52.488;13.428;2023-04-15T01:07:28;30.92;;;15.27;;
75419;SDS011;63998;52.488;13.428;2023-04-15T01:09:53;28.48;;;15.18;;
75419;SDS011;63998;52.488;13.428;2023-04-15T01:12:19;26.90;;;15.40;;
75419;SDS011;63998;52.488;13.428;2023-04-15T01:14:50;28.38;;;15.43;;
75419;SDS011;63998;52.488;13.428;2023-04-15T01:17:17;28.80;;;14.80;;
75419;SDS011;63998;52.488;13.428;2023-04-15T01:19:43;31.85;;;16.98;;
75419;SDS011;63998;52.488;13.428;2023-04-15T01:22:08;30.77;;;15.67;;
75419;SDS011;63998;52.488;13.428;2023-04-15T01:24:34;27.17;;;14.75;;
75419;SDS011;63998;52.488;13.428;2023-04-15T01:27:00;29.08;;;14.68;;
75419;SDS011;63998;52.488;13.428;2023-04-15T01:29:29;28.20;;;15.38;;
75419;SDS011;63998;52.488;13.428;2023-04-15T01:31:56;30.13;;;15.65;;
75419;SDS011;63998;52.488;13.428;2023-04-15T01:34:21;30.43;;;15.03;;
75419;SDS011;63998;52.488;13.428;2023-04-15T01:36:47;29.05;;;16.42;;
75419;SDS011;63998;52.488;13.428;2023-04-15T01:39:15;28.25;;;15.00;;
75419;SDS011;63998;52.488;13.428;2023-04-15T01:41:40;31.20;;;15.50;;
75419;SDS011;63998;52.488;13.428;2023-04-15T01:44:06;30.52;;;16.23;;
75419;SDS011;63998;52.488;13.428;2023-04-15T01:46:32;27.98;;;15.82;;
75419;SDS011;63998;52.488;13.428;2023-04-15T01:48:58;31.80;;;16.17;;
75419;SDS011;63998;52.488;13.428;2023-04-15T01:51:26;31.25;;;16.70;;
75419;SDS011;63998;52.488;13.428;2023-04-15T01:56:21;29.15;;;15.20;;
75419;SDS011;63998;52.488;13.428;2023-04-15T01:58:51;33.90;;;15.82;;
75419;SDS011;63998;52.488;13.428;2023-04-15T02:01:19;31.40;;;16.10;;
75419;SDS011;63998;52.488;13.428;2023-04-15T02:03:45;30.60;;;15.73;;
75419;SDS011;63998;52.488;13.428;2023-04-15T02:06:13;32.45;;;16.25;;
75419;SDS011;63998;52.488;13.428;2023-04-15T02:08:41;32.70;;;16.55;;
75419;SDS011;63998;52.488;13.428;2023-04-15T02:11:06;33.20;;;16.00;;
75419;SDS011;63998;52.488;13.428;2023-04-15T02:13:32;34.65;;;16.83;;
75419;SDS011;63998;52.488;13.428;2023-04-15T02:15:57;27.83;;;16.63;;
75419;SDS011;63998;52.488;13.428;2023-04-15T02:18:25;34.20;;;17.25;;
75419;SDS011;63998;52.488;13.428;2023-04-15T02:20:51;36.58;;;17.70;;
75419;SDS011;63998;52.488;13.428;2023-04-15T02:23:16;40.85;;;19.38;;
75419;SDS011;63998;52.488;13.428;2023-04-15T02:25:42;47.63;;;21.87;;
75419;SDS011;63998;52.488;13.428;2023-04-15T02:28:07;46.83;;;21.40;;
75419;SDS011;63998;52.488;13.428;2023-04-15T02:30:32;37.90;;;19.40;;
75419;SDS011;63998;52.488;13.428;2023-04-15T02:32:59;40.97;;;19.40;;
75419;SDS011;63998;52.488;13.428;2023-04-15T02:35:24;45.17;;;22.23;;
75419;SDS011;63998;52.488;13.428;2023-04-15T02:37:50;47.92;;;22.58;;
75419;SDS011;63998;52.488;13.428;2023-04-15T02:40:16;64.53;;;28.25;;
75419;SDS011;63998;52.488;13.428;2023-04-15T02:42:42;62.42;;;27.60;;
75419;SDS011;63998;52.488;13.428;2023-04-15T02:45:12;42.25;;;19.20;;
75419;SDS011;63998;52.488;13.428;2023-04-15T02:47:38;41.88;;;20.77;;
75419;SDS011;63998;52.488;13.428;2023-04-15T02:50:06;42.38;;;20.10;;
75419;SDS011;63998;52.488;13.428;2023-04-15T02:52:36;53.10;;;24.02;;
75419;SDS011;63998;52.488;13.428;2023-04-15T02:55:02;47.70;;;22.23;;
75419;SDS011;63998;52.488;13.428;2023-04-15T02:57:29;50.42;;;24.25;;
75419;SDS011;63998;52.488;13.428;2023-04-15T02:59:54;45.40;;;20.88;;
75419;SDS011;63998;52.488;13.428;2023-04-15T03:02:20;48.45;;;22.05;;
75419;SDS011;63998;52.488;13.428;2023-04-15T03:04:45;40.03;;;19.35;;
75419;SDS011;63998;52.488;13.428;2023-04-15T03:07:11;46.83;;;21.37;;
75419;SDS011;63998;52.488;13.428;2023-04-15T03:09:36;51.57;;;26.07;;
75419;SDS011;63998;52.488;13.428;2023-04-15T03:12:05;42.78;;;20.90;;
75419;SDS011;63998;52.488;13.428;2023-04-15T03:14:31;38.10;;;17.70;;
75419;SDS011;63998;52.488;13.428;2023-04-15T03:16:56;40.00;;;20.67;;
75419;SDS011;63998;52.488;13.428;2023-04-15T03:19:23;40.35;;;21.65;;
75419;SDS011;63998;52.488;13.428;2023-04-15T03:21:51;34.55;;;18.40;;
75419;SDS011;63998;52.488;13.428;2023-04-15T03:24:16;45.57;;;22.80;;
75419;SDS011;63998;52.488;13.428;2023-04-15T03:26:44;46.38;;;22.33;;
75419;SDS011;63998;52.488;13.428;2023-04-15T03:29:10;47.40;;;23.05;;
75419;SDS011;63998;52.488;13.428;2023-04-15T03:31:35;41.60;;;20.63;;
75419;SDS011;63998;52.488;13.428;2023-04-15T03:34:03;57.92;;;29.10;;
75419;SDS011;63998;52.488;13.428;2023-04-15T03:36:30;55.08;;;26.95;;
75419;SDS011;63998;52.488;13.428;2023-04-15T03:38:58;52.65;;;26.17;;
75419;SDS011;63998;52.488;13.428;2023-04-15T03:41:25;48.72;;;23.67;;
75419;SDS011;63998;52.488;13.428;2023-04-15T03:43:52;41.83;;;21.05;;
75419;SDS011;63998;52.488;13.428;2023-04-15T03:46:17;33.10;;;16.90;;
75419;SDS011;63998;52.488;13.428;2023-04-15T03:48:43;46.72;;;23.85;;
75419;SDS011;63998;52.488;13.428;2023-04-15T03:51:08;38.85;;;20.63;;
75419;SDS011;63998;52.488;13.428;2023-04-15T03:53:36;43.80;;;22.05;;
75419;SDS011;63998;52.488;13.428;2023-04-15T03:56:01;49.30;;;23.42;;
75419;SDS011;63998;52.488;13.428;2023-04-15T03:58:27;63.08;;;28.83;;
75419;SDS011;63998;52.488;13.428;2023-04-15T04:00:52;33.22;;;19.48;;
75419;SDS011;63998;52.488;13.428;2023-04-15T04:03:21;43.40;;;21.17;;
75419;SDS011;63998;52.488;13.428;2023-04-15T04:05:48;40.13;;;20.95;;
75419;SDS011;63998;52.488;13.428;2023-04-15T04:10:40;39.00;;;20.27;;
75419;SDS011;63998;52.488;13.428;2023-04-15T04:13:06;36.67;;;19.50;;
75419;SDS011;63998;52.488;13.428;2023-04-15T04:15:34;30.33;;;16.90;;
75419;SDS011;63998;52.488;13.428;2023-04-15T04:17:59;32.03;;;17.67;;
75419;SDS011;63998;52.488;13.428;2023-04-15T04:20:27;29.60;;;16.10;;
75419;SDS011;63998;52.488;13.428;2023-04-15T04:22:53;23.15;;;14.00;;
75419;SDS011;63998;52.488;13.428;2023-04-15T04:25:18;26.87;;;17.40;;
75419;SDS011;63998;52.488;13.428;2023-04-15T04:27:43;24.90;;;14.07;;
75419;SDS011;63998;52.488;13.428;2023-04-15T04:30:09;27.08;;;15.00;;
75419;SDS011;63998;52.488;13.428;2023-04-15T04:32:35;31.80;;;17.60;;
75419;SDS011;63998;52.488;13.428;2023-04-15T04:35:00;27.48;;;17.38;;
75419;SDS011;63998;52.488;13.428;2023-04-15T04:37:26;31.83;;;17.58;;
75419;SDS011;63998;52.488;13.428;2023-04-15T04:39:51;26.43;;;13.87;;
75419;SDS011;63998;52.488;13.428;2023-04-15T04:42:16;28.40;;;16.27;;
75419;SDS011;63998;52.488;13.428;2023-04-15T04:44:42;29.60;;;18.08;;
75419;SDS011;63998;52.488;13.428;2023-04-15T04:47:09;23.08;;;13.75;;
75419;SDS011;63998;52.488;13.428;2023-04-15T04:49:38;22.88;;;14.43;;
75419;SDS011;63998;52.488;13.428;2023-04-15T04:52:03;23.55;;;13.27;;
75419;SDS011;63998;52.488;13.428;2023-04-15T04:54:28;20.92;;;13.05;;
75419;SDS011;63998;52.488;13.428;2023-04-15T04:56:57;23.52;;;13.15;;
75419;SDS011;63998;52.488;13.428;2023-04-15T04:59:25;22.73;;;12.82;;
75419;SDS011;63998;52.488;13.428;2023-04-15T05:01:51;23.27;;;14.07;;
75419;SDS011;63998;52.488;13.428;2023-04-15T05:04:16;22.15;;;12.13;;
75419;SDS011;63998;52.488;13.428;2023-04-15T05:06:42;20.73;;;12.57;;
75419;SDS011;63998;52.488;13.428;2023-04-15T05:09:10;24.38;;;13.18;;
75419;SDS011;63998;52.488;13.428;2023-04-15T05:11:35;22.33;;;13.82;;
75419;SDS011;63998;52.488;13.428;2023-04-15T05:14:00;22.38;;;12.23;;
75419;SDS011;63998;52.488;13.428;2023-04-15T05:16:26;21.38;;;12.07;;
75419;SDS011;63998;52.488;13.428;2023-04-15T05:18:51;18.48;;;12.10;;
75419;SDS011;63998;52.488;13.428;2023-04-15T05:21:22;24.98;;;13.43;;
75419;SDS011;63998;52.488;13.428;2023-04-15T05:23:47;20.00;;;12.48;;
75419;SDS011;63998;52.488;13.428;2023-04-15T05:26:13;16.27;;;10.48;;
75419;SDS011;63998;52.488;13.428;2023-04-15T05:28:38;16.80;;;10.87;;
75419;SDS011;63998;52.488;13.428;2023-04-15T05:31:03;17.53;;;10.70;;
75419;SDS011;63998;52.488;13.428;2023-04-15T05:33:31;17.35;;;10.75;;
75419;SDS011;63998;52.488;13.428;2023-04-15T05:35:59;16.27;;;10.80;;
75419;SDS011;63998;52.488;13.428;2023-04-15T05:38:26;16.73;;;11.02;;
75419;SDS011;63998;52.488;13.428;2023-04-15T05:40:52;20.43;;;11.93;;
75419;SDS011;63998;52.488;13.428;2023-04-15T05:43:18;16.52;;;9.93;;
75419;SDS011;63998;52.488;13.428;2023-04-15T05:45:45;18.03;;;11.30;;
75419;SDS011;63998;52.488;13.428;2023-04-15T05:48:11;17.30;;;10.30;;
75419;SDS011;63998;52.488;13.428;2023-04-15T05:50:36;14.83;;;9.63;;
75419;SDS011;63998;52.488;13.428;2023-04-15T05:53:04;14.43;;;10.82;;
75419;SDS011;63998;52.488;13.428;2023-04-15T05:55:30;16.43;;;10.57;;
75419;SDS011;63998;52.488;13.428;2023-04-15T05:57:56;16.85;;;11.32;;
75419;SDS011;63998;52.488;13.428;2023-04-15T06:00:26;20.02;;;11.02;;
75419;SDS011;63998;52.488;13.428;2023-04-15T06:02:55;17.05;;;10.70;;
75419;SDS011;63998;52.488;13.428;2023-04-15T06:05:21;19.80;;;10.57;;
75419;SDS011;63998;52.488;13.428;2023-04-15T06:07:47;17.87;;;11.30;;
75419;SDS011;63998;52.488;13.428;2023-04-15T06:10:15;15.30;;;10.13;;
75419;SDS011;63998;52.488;13.428;2023-04-15T06:12:40;16.40;;;9.90;;
75419;SDS011;63998;52.488;13.428;2023-04-15T06:15:06;16.00;;;9.77;;
75419;SDS011;63998;52.488;13.428;2023-04-15T06:17:33;19.83;;;11.30;;
75419;SDS011;63998;52.488;13.428;2023-04-15T06:20:01;19.33;;;10.43;;
75419;SDS011;63998;52.488;13.428;2023-04-15T06:22:27;15.15;;;10.63;;
75419;SDS011;63998;52.488;13.428;2023-04-15T06:24:52;17.70;;;11.57;;
75419;SDS011;63998;52.488;13.428;2023-04-15T06:27:20;15.73;;;9.57;;
75419;SDS011;63998;52.488;13.428;2023-04-15T06:29:48;15.65;;;10.32;;
75419;SDS011;63998;52.488;13.428;2023-04-15T06:32:13;12.50;;;9.43;;
75419;SDS011;63998;52.488;13.428;2023-04-15T06:34:39;14.10;;;9.57;;
75419;SDS011;63998;52.488;13.428;2023-04-15T06:37:04;14.35;;;9.70;;
75419;SDS011;63998;52.488;13.428;2023-04-15T06:39:30;14.05;;;9.93;;
75419;SDS011;63998;52.488;13.428;2023-04-15T06:41:56;14.48;;;9.15;;
75419;SDS011;63998;52.488;13.428;2023-04-15T06:44:21;15.03;;;9.90;;
75419;SDS011;63998;52.488;13.428;2023-04-15T06:46:46;15.70;;;9.47;;
75419;SDS011;63998;52.488;13.428;2023-04-15T06:49:14;14.13;;;9.30;;
75419;SDS011;63998;52.488;13.428;2023-04-15T06:51:41;12.47;;;9.03;;
75419;SDS011;63998;52.488;13.428;2023-04-15T06:54:06;18.23;;;10.13;;
75419;SDS011;63998;52.488;13.428;2023-04-15T06:56:32;15.80;;;9.50;;
75419;SDS011;63998;52.488;13.428;2023-04-15T06:58:58;13.73;;;9.32;;
75419;SDS011;63998;52.488;13.428;2023-04-15T07:01:25;13.43;;;9.90;;
75419;SDS011;63998;52.488;13.428;2023-04-15T07:03:51;15.07;;;10.13;;
75419;SDS011;63998;52.488;13.428;2023-04-15T07:06:16;13.10;;;9.25;;
75419;SDS011;63998;52.488;13.428;2023-04-15T07:08:45;10.77;;;8.20;;
75419;SDS011;63998;52.488;13.428;2023-04-15T07:11:11;14.13;;;8.45;;
75419;SDS011;63998;52.488;13.428;2023-04-15T07:13:37;12.10;;;8.55;;
75419;SDS011;63998;52.488;13.428;2023-04-15T07:16:02;12.13;;;8.98;;
75419;SDS011;63998;52.488;13.428;2023-04-15T07:18:27;13.57;;;8.98;;
75419;SDS011;63998;52.488;13.428;2023-04-15T07:20:58;14.38;;;9.38;;
75419;SDS011;63998;52.488;13.428;2023-04-15T07:23:23;13.27;;;9.15;;
75419;SDS011;63998;52.488;13.428;2023-04-15T07:25:52;13.50;;;8.38;;
75419;SDS011;63998;52.488;13.428;2023-04-15T07:28:17;13.02;;;8.45;;
75419;SDS011;63998;52.488;13.428;2023-04-15T07:33:15;14.63;;;9.23;;
75419;SDS011;63998;52.488;13.428;2023-04-15T07:35:41;13.75;;;9.40;;
75419;SDS011;63998;52.488;13.428;2023-04-15T07:38:06;14.13;;;10.37;;
75419;SDS011;63998;52.488;13.428;2023-04-15T07:40:34;14.63;;;9.20;;
75419;SDS011;63998;52.488;13.428;2023-04-15T07:42:59;13.85;;;9.15;;
75419;SDS011;63998;52.488;13.428;2023-04-15T07:45:27;13.52;;;9.10;;
75419;SDS011;63998;52.488;13.428;2023-04-15T07:47:52;14.77;;;10.30;;
75419;SDS011;63998;52.488;13.428;2023-04-15T07:50:19;14.80;;;8.45;;
75419;SDS011;63998;52.488;13.428;2023-04-15T07:52:51;12.38;;;8.98;;
75419;SDS011;63998;52.488;13.428;2023-04-15T07:55:17;14.70;;;9.18;;
75419;SDS011;63998;52.488;13.428;2023-04-15T07:57:45;13.23;;;9.45;;
75419;SDS011;63998;52.488;13.428;2023-04-15T08:00:11;12.90;;;9.38;;
75419;SDS011;63998;52.488;13.428;2023-04-15T08:02:37;12.55;;;9.10;;
75419;SDS011;63998;52.488;13.428;2023-04-15T08:05:03;12.90;;;9.23;;
75419;SDS011;63998;52.488;13.428;2023-04-15T08:07:31;18.10;;;10.15;;
75419;SDS011;63998;52.488;13.428;2023-04-15T08:09:57;13.20;;;9.55;;
75419;SDS011;63998;52.488;13.428;2023-04-15T08:12:22;21.58;;;10.65;;
75419;SDS011;63998;52.488;13.428;2023-04-15T08:14:48;12.70;;;8.52;;
75419;SDS011;63998;52.488;13.428;2023-04-15T08:17:15;12.27;;;8.90;;
75419;SDS011;63998;52.488;13.428;2023-04-15T08:19:43;17.30;;;9.80;;
75419;SDS011;63998;52.488;13.428;2023-04-15T08:22:09;12.23;;;9.05;;
75419;SDS011;63998;52.488;13.428;2023-04-15T08:24:38;14.75;;;9.68;;
75419;SDS011;63998;52.488;13.428;2023-04-15T08:27:04;14.98;;;9.93;;
75419;SDS011;63998;52.488;13.428;2023-04-15T08:29:32;13.73;;;9.32;;
75419;SDS011;63998;52.488;13.428;2023-04-15T08:31:58;14.25;;;9.55;;
75419;SDS011;63998;52.488;13.428;2023-04-15T08:34:24;14.27;;;10.43;;
75419;SDS011;63998;52.488;13.428;2023-04-15T08:36:52;13.85;;;9.55;;
75419;SDS011;63998;52.488;13.428;2023-04-15T08:39:20;13.00;;;9.43;;
75419;SDS011;63998;52.488;13.428;2023-04-15T08:41:51;14.13;;;9.38;;
75419;SDS011;63998;52.488;13.428;2023-04-15T08:44:24;14.85;;;11.57;;
75419;SDS011;63998;52.488;13.428;2023-04-15T08:46:51;18.23;;;10.23;;
75419;SDS011;63998;52.488;13.428;2023-04-15T08:49:23;13.82;;;9.95;;
75419;SDS011;63998;52.488;13.428;2023-04-15T08:51:53;15.57;;;10.07;;
75419;SDS011;63998;52.488;13.428;2023-04-15T08:54:20;15.48;;;10.40;;
75419;SDS011;63998;52.488;13.428;2023-04-15T08:56:48;13.27;;;10.52;;
75419;SDS011;63998;52.488;13.428;2023-04-15T08:59:14;15.35;;;10.52;;
75419;SDS011;63998;52.488;13.428;2023-04-15T09:01:40;16.15;;;10.40;;
75419;SDS011;63998;52.488;13.428;2023-04-15T09:04:06;13.18;;;9.65;;
75419;SDS011;63998;52.488;13.428;2023-04-15T09:06:32;15.05;;;10.38;;
75419;SDS011;63998;52.488;13.428;2023-04-15T09:08:58;14.63;;;10.07;;
75419;SDS011;63998;52.488;13.428;2023-04-15T09:11:23;13.02;;;10.70;;
75419;SDS011;63998;52.488;13.428;2023-04-15T09:13:49;14.63;;;9.98;;
75419;SDS011;63998;52.488;13.428;2023-04-15T09:16:17;14.20;;;9.85;;
75419;SDS011;63998;52.488;13.428;2023-04-15T09:18:42;16.48;;;11.32;;
75419;SDS011;63998;52.488;13.428;2023-04-15T09:21:09;15.75;;;10.32;;
75419;SDS011;63998;52.488;13.428;2023-04-15T09:23:36;13.20;;;10.45;;
75419;SDS011;63998;52.488;13.428;2023-04-15T09:26:03;13.70;;;10.80;;
75419;SDS011;63998;52.488;13.428;2023-04-15T09:28:30;15.70;;;10.13;;
75419;SDS011;63998;52.488;13.428;2023-04-15T09:30:59;15.80;;;11.02;;
75419;SDS011;63998;52.488;13.428;2023-04-15T09:33:28;14.20;;;10.48;;
75419;SDS011;63998;52.488;13.428;2023-04-15T09:36:00;16.45;;;9.80;;
75419;SDS011;63998;52.488;13.428;2023-04-15T09:38:31;12.95;;;10.88;;
75419;SDS011;63998;52.488;13.428;2023-04-15T09:40:57;15.63;;;10.50;;
75419;SDS011;63998;52.488;13.428;2023-04-15T09:43:35;16.33;;;11.10;;
75419;SDS011;63998;52.488;13.428;2023-04-15T09:46:03;14.32;;;10.55;;
75419;SDS011;63998;52.488;13.428;2023-04-15T09:48:28;17.65;;;11.43;;
75419;SDS011;63998;52.488;13.428;2023-04-15T09:50:56;15.63;;;11.88;;
75419;SDS011;63998;52.488;13.428;2023-04-15T09:53:23;14.80;;;9.98;;
75419;SDS011;63998;52.488;13.428;2023-04-15T09:58:20;16.90;;;10.82;;
75419;SDS011;63998;52.488;13.428;2023-04-15T10:00:49;18.17;;;11.38;;
75419;SDS011;63998;52.488;13.428;2023-04-15T10:03:20;15.57;;;10.75;;
75419;SDS011;63998;52.488;13.428;2023-04-15T10:05:50;13.65;;;10.32;;
75419;SDS011;63998;52.488;13.428;2023-04-15T10:08:26;14.18;;;10.30;;
75419;SDS011;63998;52.488;13.428;2023-04-15T10:10:53;14.00;;;9.63;;
75419;SDS011;63998;52.488;13.428;2023-04-15T10:13:23;15.73;;;10.65;;
75419;SDS011;63998;52.488;13.428;2023-04-15T10:15:50;13.23;;;10.00;;
75419;SDS011;63998;52.488;13.428;2023-04-15T10:18:27;11.93;;;9.23;;
75419;SDS011;63998;52.488;13.428;2023-04-15T10:21:00;12.90;;;9.68;;
75419;SDS011;63998;52.488;13.428;2023-04-15T10:23:26;13.20;;;9.30;;
75419;SDS011;63998;52.488;13.428;2023-04-15T10:25:52;17.42;;;10.98;;
75419;SDS011;63998;52.488;13.428;2023-04-15T10:28:21;14.35;;;9.75;;
75419;SDS011;63998;52.488;13.428;2023-04-15T10:30:49;14.73;;;10.80;;
75419;SDS011;63998;52.488;13.428;2023-04-15T10:33:16;14.23;;;10.05;;
75419;SDS011;63998;52.488;13.428;2023-04-15T10:35:46;13.90;;;9.88;;
75419;SDS011;63998;52.488;13.428;2023-04-15T10:43:47;13.00;;;10.10;;
75419;SDS011;63998;52.488;13.428;2023-04-15T10:46:40;15.52;;;10.68;;
75419;SDS011;63998;52.488;13.428;2023-04-15T10:49:11;15.77;;;9.90;;
75419;SDS011;63998;52.488;13.428;2023-04-15T10:51:41;15.23;;;10.43;;
75419;SDS011;63998;52.488;13.428;2023-04-15T10:57:06;16.58;;;11.30;;
75419;SDS011;63998;52.488;13.428;2023-04-15T11:02:23;19.85;;;14.02;;
75419;SDS011;63998;52.488;13.428;2023-04-15T11:05:12;16.08;;;13.05;;
75419;SDS011;63998;52.488;13.428;2023-04-15T11:12:42;14.57;;;12.27;;
75419;SDS011;63998;52.488;13.428;2023-04-15T11:18:18;19.83;;;15.48;;
75419;SDS011;63998;52.488;13.428;2023-04-15T11:25:53;20.42;;;16.13;;
75419;SDS011;63998;52.488;13.428;2023-04-15T11:28:23;27.40;;;19.35;;
75419;SDS011;63998;52.488;13.428;2023-04-15T11:30:56;18.02;;;11.18;;
75419;SDS011;63998;52.488;13.428;2023-04-15T11:33:22;15.63;;;10.98;;
75419;SDS011;63998;52.488;13.428;2023-04-15T11:35:49;17.45;;;13.13;;
75419;SDS011;63998;52.488;13.428;2023-04-15T11:38:19;16.50;;;10.98;;
75419;SDS011;63998;52.488;13.428;2023-04-15T11:40:47;13.48;;;10.27;;
75419;SDS011;63998;52.488;13.428;2023-04-15T11:43:13;13.55;;;9.93;;
75419;SDS011;63998;52.488;13.428;2023-04-15T11:46:13;15.50;;;9.82;;
75419;SDS011;63998;52.488;13.428;2023-04-15T11:48:33;28.67;;;18.63;;
75419;SDS011;63998;52.488;13.428;2023-04-15T11:51:06;24.45;;;15.73;;
75419;SDS011;63998;52.488;13.428;2023-04-15T11:53:45;20.02;;;14.93;;
75419;SDS011;63998;52.488;13.428;2023-04-15T11:58:43;25.50;;;17.27;;
75419;SDS011;63998;52.488;13.428;2023-04-15T12:01:10;17.58;;;12.52;;
75419;SDS011;63998;52.488;13.428;2023-04-15T12:03:39;22.13;;;14.30;;
75419;SDS011;63998;52.488;13.428;2023-04-15T12:09:02;22.30;;;16.38;;
75419;SDS011;63998;52.488;13.428;2023-04-15T12:16:51;13.75;;;10.65;;
75419;SDS011;63998;52.488;13.428;2023-04-15T12:19:54;19.33;;;13.32;;
75419;SDS011;63998;52.488;13.428;2023-04-15T12:22:13;16.65;;;11.82;;
75419;SDS011;63998;52.488;13.428;2023-04-15T12:24:40;17.75;;;12.25;;
75419;SDS011;63998;52.488;13.428;2023-04-15T12:27:12;16.75;;;10.95;;
75419;SDS011;63998;52.488;13.428;2023-04-15T12:29:39;14.93;;;10.32;;
75419;SDS011;63998;52.488;13.428;2023-04-15T12:34:38;15.15;;;10.30;;
75419;SDS011;63998;52.488;13.428;2023-04-15T12:37:05;31.83;;;21.02;;
75419;SDS011;63998;52.488;13.428;2023-04-15T12:39:34;12.25;;;9.57;;
75419;SDS011;63998;52.488;13.428;2023-04-15T12:42:03;14.82;;;11.32;;
75419;SDS011;63998;52.488;13.428;2023-04-15T12:44:29;16.33;;;12.02;;
75419;SDS011;63998;52.488;13.428;2023-04-15T12:46:55;21.02;;;17.20;;
75419;SDS011;63998;52.488;13.428;2023-04-15T12:49:21;12.93;;;10.90;;
75419;SDS011;63998;52.488;13.428;2023-04-15T12:51:50;13.77;;;9.27;;
75419;SDS011;63998;52.488;13.428;2023-04-15T12:54:17;11.35;;;8.77;;
75419;SDS011;63998;52.488;13.428;2023-04-15T12:56:45;11.85;;;8.82;;
75419;SDS011;63998;52.488;13.428;2023-04-15T12:59:16;10.13;;;7.88;;
75419;SDS011;63998;52.488;13.428;2023-04-15T13:01:42;10.07;;;7.88;;
75419;SDS011;63998;52.488;13.428;2023-04-15T13:04:09;8.50;;;7.00;;
75419;SDS011;63998;52.488;13.428;2023-04-15T13:06:34;10.15;;;7.45;;
75419;SDS011;63998;52.488;13.428;2023-04-15T13:09:01;10.80;;;6.97;;
75419;SDS011;63998;52.488;13.428;2023-04-15T13:11:30;8.43;;;6.63;;
75419;SDS011;63998;52.488;13.428;2023-04-15T13:14:00;7.90;;;6.65;;
75419;SDS011;63998;52.488;13.428;2023-04-15T13:16:26;8.57;;;6.40;;
75419;SDS011;63998;52.488;13.428;2023-04-15T13:18:54;10.25;;;7.70;;
75419;SDS011;63998;52.488;13.428;2023-04-15T13:21:22;11.68;;;8.52;;
75419;SDS011;63998;52.488;13.428;2023-04-15T13:23:51;9.88;;;7.00;;
75419;SDS011;63998;52.488;13.428;2023-04-15T13:26:19;9.98;;;6.75;;
75419;SDS011;63998;52.488;13.428;2023-04-15T13:28:46;7.75;;;6.63;;
75419;SDS011;63998;52.488;13.428;2023-04-15T13:31:12;9.57;;;7.55;;
75419;SDS011;63998;52.488;13.428;2023-04-15T13:33:37;9.02;;;6.70;;
75419;SDS011;63998;52.488;13.428;2023-04-15T13:36:02;8.80;;;6.85;;
75419;SDS011;63998;52.488;13.428;2023-04-15T13:38:33;8.60;;;6.25;;
75419;SDS011;63998;52.488;13.428;2023-04-15T13:40:58;8.57;;;6.60;;
75419;SDS011;63998;52.488;13.428;2023-04-15T13:43:23;9.43;;;7.20;;
75419;SDS011;63998;52.488;13.428;2023-04-15T13:45:49;8.73;;;6.55;;
75419;SDS011;63998;52.488;13.428;2023-04-15T13:48:17;10.25;;;7.22;;
75419;SDS011;63998;52.488;13.428;2023-04-15T13:50:42;9.75;;;7.18;;
75419;SDS011;63998;52.488;13.428;2023-04-15T13:53:09;13.77;;;8.15;;
75419;SDS011;63998;52.488;13.428;2023-04-15T13:55:35;8.82;;;6.10;;
75419;SDS011;63998;52.488;13.428;2023-04-15T13:58:05;10.45;;;7.45;;
75419;SDS011;63998;52.488;13.428;2023-04-15T14:00:31;8.68;;;7.57;;
75419;SDS011;63998;52.488;13.428;2023-04-15T14:02:59;9.33;;;6.47;;
75419;SDS011;63998;52.488;13.428;2023-04-15T14:05:25;9.18;;;6.53;;
75419;SDS011;63998;52.488;13.428;2023-04-15T14:07:50;7.72;;;6.07;;
75419;SDS011;63998;52.488;13.428;2023-04-15T14:10:16;8.95;;;6.38;;
75419;SDS011;63998;52.488;13.428;2023-04-15T14:12:41;8.05;;;6.40;;
75419;SDS011;63998;52.488;13.428;2023-04-15T14:15:08;8.80;;;6.38;;
75419;SDS011;63998;52.488;13.428;2023-04-15T14:17:34;9.00;;;7.03;;
75419;SDS011;63998;52.488;13.428;2023-04-15T14:20:00;7.53;;;5.82;;
75419;SDS011;63998;52.488;13.428;2023-04-15T14:22:25;6.00;;;5.32;;
75419;SDS011;63998;52.488;13.428;2023-04-15T14:24:50;6.23;;;5.17;;
75419;SDS011;63998;52.488;13.428;2023-04-15T14:27:19;9.57;;;6.28;;
75419;SDS011;63998;52.488;13.428;2023-04-15T14:29:45;7.38;;;5.60;;
75419;SDS011;63998;52.488;13.428;2023-04-15T14:32:10;6.85;;;5.82;;
75419;SDS011;63998;52.488;13.428;2023-04-15T14:34:38;7.45;;;5.70;;
75419;SDS011;63998;52.488;13.428;2023-04-15T14:37:04;8.93;;;6.07;;
75419;SDS011;63998;52.488;13.428;2023-04-15T14:39:29;9.18;;;6.65;;
75419;SDS011;63998;52.488;13.428;2023-04-15T14:41:55;12.40;;;8.32;;
75419;SDS011;63998;52.488;13.428;2023-04-15T14:44:20;8.07;;;6.68;;
75419;SDS011;63998;52.488;13.428;2023-04-15T14:46:46;8.48;;;6.72;;
75419;SDS011;63998;52.488;13.428;2023-04-15T14:49:13;8.13;;;6.72;;
75419;SDS011;63998;52.488;13.428;2023-04-15T14:51:41;7.97;;;6.90;;
75419;SDS011;63998;52.488;13.428;2023-04-15T14:54:07;8.85;;;6.55;;
75419;SDS011;63998;52.488;13.428;2023-04-15T14:56:32;9.10;;;7.27;;
75419;SDS011;63998;52.488;13.428;2023-04-15T14:58:57;9.20;;;6.80;;
75419;SDS011;63998;52.488;13.428;2023-04-15T15:03:51;8.45;;;6.20;;
75419;SDS011;63998;52.488;13.428;2023-04-15T15:06:17;6.53;;;5.13;;